DGTMR ENZV-EDWI
Flight info
| Callsign | DGTMR |
|---|---|
| Flight time | 2h 4m |
| Altitude | 10500 |
| Route | VFR |
| Aircraft | DA42/L-DGV/A |
Departure
| Time | 2026-05-05 10:58 |
|---|---|
| Airport | Stavanger Airport, Sola (ENZV) |
Arrival
| Time | 2026-05-05 13:02 |
|---|---|
| Airport | JadeWeser Airport (EDWI) |
| Time | Latitude | Longitude | Altitude | Speed | Heading |
|---|---|---|---|---|---|
| 2026-05-05 10:48 | 58.88436 | 5.62814 | 19 ft | 0 kts | 225° |
| 2026-05-05 10:52 | 58.88430 | 5.62817 | 19 ft | 3 kts | 114° |
| 2026-05-05 10:53 | 58.88448 | 5.62855 | 19 ft | 6 kts | 37° |
| 2026-05-05 10:53 | 58.88483 | 5.62915 | 19 ft | 6 kts | 58° |
| 2026-05-05 10:53 | 58.88483 | 5.63002 | 19 ft | 9 kts | 106° |
| 2026-05-05 10:53 | 58.88468 | 5.63052 | 20 ft | 0 kts | 129° |
| 2026-05-05 10:55 | 58.88418 | 5.63154 | 21 ft | 18 kts | 139° |
| 2026-05-05 10:55 | 58.88318 | 5.63255 | 24 ft | 16 kts | 166° |
| 2026-05-05 10:55 | 58.88210 | 5.63301 | 24 ft | 16 kts | 175° |
| 2026-05-05 10:55 | 58.88108 | 5.63237 | 23 ft | 16 kts | 217° |
| 2026-05-05 10:56 | 58.88030 | 5.63096 | 21 ft | 15 kts | 226° |
| 2026-05-05 10:56 | 58.87989 | 5.62944 | 21 ft | 12 kts | 258° |
| 2026-05-05 10:56 | 58.87991 | 5.62786 | 20 ft | 12 kts | 284° |
| 2026-05-05 10:56 | 58.88012 | 5.62656 | 20 ft | 8 kts | 285° |
| 2026-05-05 10:57 | 58.87994 | 5.62543 | 19 ft | 10 kts | 203° |
| 2026-05-05 10:57 | 58.87961 | 5.62524 | 19 ft | 9 kts | 195° |
| 2026-05-05 10:57 | 58.87873 | 5.62531 | 20 ft | 13 kts | 129° |
| 2026-05-05 10:57 | 58.87862 | 5.62577 | 20 ft | 5 kts | 103° |
| 2026-05-05 10:58 | 58.87792 | 5.63065 | 24 ft | 66 kts | 107° |
| 2026-05-05 10:58 | 58.87643 | 5.64092 | 161 ft | 83 kts | 105° |
| 2026-05-05 10:58 | 58.87459 | 5.65234 | 395 ft | 93 kts | 110° |
| 2026-05-05 10:58 | 58.87037 | 5.66164 | 651 ft | 100 kts | 160° |
| 2026-05-05 10:59 | 58.86311 | 5.66353 | 872 ft | 112 kts | 180° |
| 2026-05-05 10:59 | 58.85552 | 5.66510 | 1344 ft | 110 kts | 179° |
| 2026-05-05 10:59 | 58.84779 | 5.66702 | 1736 ft | 112 kts | 178° |
| 2026-05-05 10:59 | 58.84002 | 5.66851 | 2129 ft | 113 kts | 180° |
| 2026-05-05 11:00 | 58.83196 | 5.66918 | 2324 ft | 127 kts | 184° |
| 2026-05-05 11:00 | 58.82233 | 5.66959 | 2330 ft | 147 kts | 184° |
| 2026-05-05 11:00 | 58.81163 | 5.66985 | 2332 ft | 159 kts | 184° |
| 2026-05-05 11:00 | 58.80027 | 5.67025 | 2323 ft | 166 kts | 183° |
| 2026-05-05 11:01 | 58.78859 | 5.67044 | 2326 ft | 169 kts | 184° |
| 2026-05-05 11:01 | 58.77673 | 5.67055 | 2323 ft | 171 kts | 183° |
| 2026-05-05 11:01 | 58.76482 | 5.67023 | 2323 ft | 171 kts | 184° |
| 2026-05-05 11:01 | 58.75313 | 5.66976 | 2324 ft | 170 kts | 185° |
| 2026-05-05 11:02 | 58.74133 | 5.66886 | 2323 ft | 170 kts | 185° |
| 2026-05-05 11:02 | 58.72949 | 5.66782 | 2328 ft | 171 kts | 184° |
| 2026-05-05 11:02 | 58.71747 | 5.66760 | 2326 ft | 173 kts | 183° |
| 2026-05-05 11:02 | 58.70549 | 5.66723 | 2323 ft | 172 kts | 184° |
| 2026-05-05 11:03 | 58.69343 | 5.66712 | 2324 ft | 174 kts | 184° |
| 2026-05-05 11:03 | 58.68140 | 5.66702 | 2326 ft | 172 kts | 184° |
| 2026-05-05 11:03 | 58.66942 | 5.66699 | 2325 ft | 172 kts | 183° |
| 2026-05-05 11:03 | 58.65750 | 5.66678 | 2323 ft | 170 kts | 183° |
| 2026-05-05 11:04 | 58.64568 | 5.66635 | 2328 ft | 170 kts | 184° |
| 2026-05-05 11:04 | 58.63382 | 5.66635 | 2323 ft | 170 kts | 181° |
| 2026-05-05 11:04 | 58.62220 | 5.66709 | 2324 ft | 169 kts | 179° |
| 2026-05-05 11:04 | 58.61035 | 5.66879 | 2324 ft | 168 kts | 178° |
| 2026-05-05 11:05 | 58.59884 | 5.67071 | 2323 ft | 168 kts | 178° |
| 2026-05-05 11:05 | 58.58722 | 5.67264 | 2321 ft | 168 kts | 178° |
| 2026-05-05 11:05 | 58.57551 | 5.67462 | 2328 ft | 169 kts | 178° |
| 2026-05-05 11:05 | 58.56373 | 5.67663 | 2328 ft | 169 kts | 178° |
| 2026-05-05 11:06 | 58.55200 | 5.67868 | 2330 ft | 169 kts | 178° |
| 2026-05-05 11:06 | 58.54036 | 5.68355 | 2325 ft | 172 kts | 163° |
| 2026-05-05 11:06 | 58.52919 | 5.69168 | 2325 ft | 172 kts | 158° |
| 2026-05-05 11:06 | 58.51838 | 5.70126 | 2322 ft | 171 kts | 152° |
| 2026-05-05 11:07 | 58.50847 | 5.71381 | 2321 ft | 170 kts | 144° |
| 2026-05-05 11:07 | 58.49892 | 5.72716 | 2321 ft | 170 kts | 144° |
| 2026-05-05 11:07 | 58.48947 | 5.74038 | 2323 ft | 171 kts | 144° |
| 2026-05-05 11:07 | 58.47983 | 5.75379 | 2311 ft | 171 kts | 144° |
| 2026-05-05 11:08 | 58.47016 | 5.76721 | 2311 ft | 171 kts | 144° |
| 2026-05-05 11:08 | 58.46053 | 5.78056 | 2310 ft | 171 kts | 144° |
| 2026-05-05 11:08 | 58.45094 | 5.79400 | 2310 ft | 171 kts | 144° |
| 2026-05-05 11:08 | 58.44131 | 5.80756 | 2308 ft | 172 kts | 144° |
| 2026-05-05 11:09 | 58.43165 | 5.82110 | 2309 ft | 172 kts | 144° |
| 2026-05-05 11:09 | 58.42348 | 5.83238 | 2307 ft | 172 kts | 144° |
| 2026-05-05 11:09 | 58.41402 | 5.84538 | 2309 ft | 170 kts | 144° |
| 2026-05-05 11:09 | 58.40445 | 5.85853 | 2308 ft | 169 kts | 144° |
| 2026-05-05 11:10 | 58.39488 | 5.87170 | 2309 ft | 170 kts | 144° |
| 2026-05-05 11:10 | 58.38544 | 5.88469 | 2309 ft | 170 kts | 144° |
| 2026-05-05 11:10 | 58.37586 | 5.89779 | 2309 ft | 169 kts | 144° |
| 2026-05-05 11:10 | 58.36628 | 5.91090 | 2309 ft | 170 kts | 144° |
| 2026-05-05 11:11 | 58.35671 | 5.92397 | 2381 ft | 165 kts | 144° |
| 2026-05-05 11:11 | 58.34758 | 5.93641 | 2540 ft | 159 kts | 145° |
| 2026-05-05 11:11 | 58.33868 | 5.94866 | 2704 ft | 156 kts | 144° |
| 2026-05-05 11:11 | 58.32990 | 5.96045 | 2862 ft | 153 kts | 144° |
| 2026-05-05 11:12 | 58.32127 | 5.97191 | 3019 ft | 151 kts | 144° |
| 2026-05-05 11:12 | 58.31269 | 5.98325 | 3179 ft | 149 kts | 144° |
| 2026-05-05 11:12 | 58.30415 | 5.99455 | 3338 ft | 149 kts | 144° |
| 2026-05-05 11:12 | 58.29562 | 6.00581 | 3495 ft | 150 kts | 144° |
| 2026-05-05 11:13 | 58.28701 | 6.01707 | 3650 ft | 150 kts | 144° |
| 2026-05-05 11:13 | 58.27839 | 6.02834 | 3806 ft | 151 kts | 144° |
| 2026-05-05 11:13 | 58.26977 | 6.03963 | 3973 ft | 150 kts | 144° |
| 2026-05-05 11:13 | 58.26115 | 6.05095 | 4125 ft | 151 kts | 144° |
| 2026-05-05 11:14 | 58.25251 | 6.06230 | 4285 ft | 151 kts | 144° |
| 2026-05-05 11:14 | 58.24384 | 6.07367 | 4446 ft | 152 kts | 144° |
| 2026-05-05 11:14 | 58.23516 | 6.08505 | 4607 ft | 152 kts | 144° |
| 2026-05-05 11:14 | 58.22657 | 6.09627 | 4766 ft | 152 kts | 144° |
| 2026-05-05 11:15 | 58.21786 | 6.10769 | 4929 ft | 152 kts | 145° |
| 2026-05-05 11:15 | 58.20915 | 6.11919 | 5086 ft | 152 kts | 145° |
| 2026-05-05 11:15 | 58.20043 | 6.13079 | 5243 ft | 153 kts | 145° |
| 2026-05-05 11:15 | 58.19174 | 6.14243 | 5401 ft | 153 kts | 145° |
| 2026-05-05 11:16 | 58.18308 | 6.15410 | 5566 ft | 153 kts | 145° |
| 2026-05-05 11:16 | 58.17438 | 6.16586 | 5717 ft | 153 kts | 145° |
| 2026-05-05 11:16 | 58.16571 | 6.17771 | 5874 ft | 154 kts | 145° |
| 2026-05-05 11:16 | 58.15702 | 6.18967 | 6035 ft | 155 kts | 145° |
| 2026-05-05 11:17 | 58.14832 | 6.20174 | 6212 ft | 155 kts | 145° |
| 2026-05-05 11:17 | 58.13970 | 6.21376 | 6361 ft | 156 kts | 145° |
| 2026-05-05 11:17 | 58.13097 | 6.22602 | 6515 ft | 156 kts | 145° |
| 2026-05-05 11:17 | 58.12226 | 6.23839 | 6666 ft | 157 kts | 145° |
| 2026-05-05 11:18 | 58.11359 | 6.25090 | 6809 ft | 157 kts | 145° |
| 2026-05-05 11:18 | 58.10494 | 6.26356 | 6968 ft | 157 kts | 145° |
| 2026-05-05 11:18 | 58.09629 | 6.27629 | 7127 ft | 158 kts | 146° |
| 2026-05-05 11:18 | 58.08760 | 6.28904 | 7281 ft | 158 kts | 146° |
| 2026-05-05 11:19 | 58.07892 | 6.30194 | 7433 ft | 159 kts | 146° |
| 2026-05-05 11:19 | 58.07026 | 6.31487 | 7588 ft | 159 kts | 147° |
| 2026-05-05 11:19 | 58.06155 | 6.32778 | 7745 ft | 159 kts | 147° |
| 2026-05-05 11:19 | 58.05289 | 6.34080 | 7902 ft | 160 kts | 147° |
| 2026-05-05 11:20 | 58.04415 | 6.35379 | 8062 ft | 160 kts | 149° |
| 2026-05-05 11:20 | 58.03537 | 6.36672 | 8203 ft | 160 kts | 149° |
| 2026-05-05 11:20 | 58.02671 | 6.37962 | 8357 ft | 160 kts | 150° |
| 2026-05-05 11:20 | 58.01781 | 6.39241 | 8493 ft | 162 kts | 151° |
| 2026-05-05 11:21 | 58.00852 | 6.40563 | 8494 ft | 171 kts | 151° |
| 2026-05-05 11:21 | 57.99869 | 6.41895 | 8496 ft | 176 kts | 153° |
| 2026-05-05 11:21 | 57.98851 | 6.43226 | 8496 ft | 179 kts | 153° |
| 2026-05-05 11:21 | 57.97816 | 6.44572 | 8502 ft | 181 kts | 153° |
| 2026-05-05 11:22 | 57.96774 | 6.45923 | 8502 ft | 183 kts | 153° |
| 2026-05-05 11:22 | 57.95722 | 6.47283 | 8502 ft | 183 kts | 153° |
| 2026-05-05 11:22 | 57.94667 | 6.48643 | 8502 ft | 184 kts | 153° |
| 2026-05-05 11:22 | 57.93612 | 6.50004 | 8502 ft | 184 kts | 153° |
| 2026-05-05 11:23 | 57.92565 | 6.51352 | 8503 ft | 184 kts | 153° |
| 2026-05-05 11:23 | 57.91507 | 6.52716 | 8503 ft | 185 kts | 153° |
| 2026-05-05 11:23 | 57.90448 | 6.54082 | 8503 ft | 185 kts | 153° |
| 2026-05-05 11:23 | 57.89388 | 6.55451 | 8503 ft | 185 kts | 153° |
| 2026-05-05 11:24 | 57.88327 | 6.56821 | 8503 ft | 185 kts | 153° |
| 2026-05-05 11:24 | 57.87266 | 6.58190 | 8503 ft | 185 kts | 153° |
| 2026-05-05 11:24 | 57.86205 | 6.59557 | 8498 ft | 185 kts | 153° |
| 2026-05-05 11:24 | 57.85140 | 6.60928 | 8498 ft | 185 kts | 153° |
| 2026-05-05 11:25 | 57.84079 | 6.62294 | 8496 ft | 185 kts | 153° |
| 2026-05-05 11:25 | 57.83016 | 6.63662 | 8496 ft | 185 kts | 153° |
| 2026-05-05 11:25 | 57.81952 | 6.65029 | 8496 ft | 185 kts | 153° |
| 2026-05-05 11:25 | 57.80890 | 6.66393 | 8496 ft | 185 kts | 153° |
| 2026-05-05 11:26 | 57.79826 | 6.67760 | 8496 ft | 185 kts | 153° |
| 2026-05-05 11:26 | 57.78762 | 6.69127 | 8496 ft | 185 kts | 153° |
| 2026-05-05 11:26 | 57.77711 | 6.70475 | 8496 ft | 185 kts | 153° |
| 2026-05-05 11:26 | 57.76648 | 6.71836 | 8494 ft | 185 kts | 153° |
| 2026-05-05 11:27 | 57.75582 | 6.73201 | 8497 ft | 185 kts | 153° |
| 2026-05-05 11:27 | 57.74513 | 6.74569 | 8480 ft | 185 kts | 152° |
| 2026-05-05 11:27 | 57.73450 | 6.75900 | 8491 ft | 183 kts | 153° |
| 2026-05-05 11:27 | 57.72394 | 6.77212 | 8494 ft | 182 kts | 153° |
| 2026-05-05 11:28 | 57.71340 | 6.78520 | 8496 ft | 181 kts | 153° |
| 2026-05-05 11:28 | 57.70290 | 6.79822 | 8490 ft | 181 kts | 153° |
| 2026-05-05 11:28 | 57.69240 | 6.81125 | 8490 ft | 181 kts | 153° |
| 2026-05-05 11:28 | 57.68192 | 6.82426 | 8488 ft | 181 kts | 153° |
| 2026-05-05 11:29 | 57.67157 | 6.83710 | 8485 ft | 181 kts | 153° |
| 2026-05-05 11:29 | 57.66097 | 6.85026 | 8488 ft | 181 kts | 153° |
| 2026-05-05 11:29 | 57.65064 | 6.86311 | 8488 ft | 181 kts | 153° |
| 2026-05-05 11:29 | 57.64016 | 6.87614 | 8488 ft | 181 kts | 153° |
| 2026-05-05 11:30 | 57.62969 | 6.88916 | 8491 ft | 181 kts | 153° |
| 2026-05-05 11:30 | 57.61919 | 6.90221 | 8495 ft | 181 kts | 153° |
| 2026-05-05 11:30 | 57.60873 | 6.91522 | 8496 ft | 181 kts | 153° |
| 2026-05-05 11:30 | 57.59825 | 6.92824 | 8496 ft | 181 kts | 153° |
| 2026-05-05 11:31 | 57.58776 | 6.94128 | 8491 ft | 181 kts | 153° |
| 2026-05-05 11:31 | 57.57725 | 6.95432 | 8491 ft | 181 kts | 153° |
| 2026-05-05 11:31 | 57.56674 | 6.96735 | 8491 ft | 181 kts | 153° |
| 2026-05-05 11:31 | 57.55625 | 6.98034 | 8490 ft | 181 kts | 153° |
| 2026-05-05 11:32 | 57.54574 | 6.99335 | 8490 ft | 181 kts | 153° |
| 2026-05-05 11:32 | 57.53525 | 7.00634 | 8489 ft | 181 kts | 153° |
| 2026-05-05 11:32 | 57.52487 | 7.01920 | 8491 ft | 181 kts | 153° |
| 2026-05-05 11:32 | 57.51435 | 7.03220 | 8491 ft | 181 kts | 153° |
| 2026-05-05 11:33 | 57.50370 | 7.04536 | 8491 ft | 181 kts | 153° |
| 2026-05-05 11:33 | 57.49331 | 7.05820 | 8490 ft | 181 kts | 153° |
| 2026-05-05 11:33 | 57.48281 | 7.07115 | 8488 ft | 181 kts | 153° |
| 2026-05-05 11:33 | 57.47234 | 7.08408 | 8488 ft | 181 kts | 153° |
| 2026-05-05 11:34 | 57.46190 | 7.09697 | 8488 ft | 180 kts | 153° |
| 2026-05-05 11:34 | 57.45148 | 7.10983 | 8471 ft | 179 kts | 153° |
| 2026-05-05 11:34 | 57.44113 | 7.12248 | 8492 ft | 177 kts | 153° |
| 2026-05-05 11:34 | 57.43083 | 7.13501 | 8491 ft | 176 kts | 153° |
| 2026-05-05 11:35 | 57.42058 | 7.14747 | 8493 ft | 176 kts | 153° |
| 2026-05-05 11:35 | 57.41033 | 7.15992 | 8493 ft | 176 kts | 153° |
| 2026-05-05 11:35 | 57.40008 | 7.17235 | 8493 ft | 176 kts | 153° |
| 2026-05-05 11:35 | 57.38985 | 7.18476 | 8493 ft | 176 kts | 153° |
| 2026-05-05 11:36 | 57.37960 | 7.19716 | 8492 ft | 176 kts | 153° |
| 2026-05-05 11:36 | 57.36931 | 7.20959 | 8492 ft | 176 kts | 153° |
| 2026-05-05 11:36 | 57.35905 | 7.22199 | 8491 ft | 176 kts | 153° |
| 2026-05-05 11:36 | 57.34878 | 7.23438 | 8491 ft | 176 kts | 153° |
| 2026-05-05 11:37 | 57.33850 | 7.24676 | 8491 ft | 176 kts | 153° |
| 2026-05-05 11:37 | 57.32822 | 7.25915 | 8490 ft | 176 kts | 153° |
| 2026-05-05 11:37 | 57.31796 | 7.27151 | 8490 ft | 176 kts | 153° |
| 2026-05-05 11:37 | 57.30783 | 7.28371 | 8489 ft | 176 kts | 153° |
| 2026-05-05 11:38 | 57.29760 | 7.29603 | 8488 ft | 175 kts | 153° |
| 2026-05-05 11:38 | 57.28737 | 7.30836 | 8487 ft | 175 kts | 153° |
| 2026-05-05 11:38 | 57.27721 | 7.32061 | 8489 ft | 174 kts | 153° |
| 2026-05-05 11:38 | 57.26705 | 7.33286 | 8488 ft | 174 kts | 153° |
| 2026-05-05 11:39 | 57.25692 | 7.34508 | 8489 ft | 173 kts | 153° |
| 2026-05-05 11:39 | 57.24683 | 7.35726 | 8489 ft | 173 kts | 153° |
| 2026-05-05 11:39 | 57.23676 | 7.36943 | 8488 ft | 173 kts | 153° |
| 2026-05-05 11:39 | 57.22684 | 7.38143 | 8483 ft | 172 kts | 153° |
| 2026-05-05 11:40 | 57.21682 | 7.39357 | 8482 ft | 172 kts | 153° |
| 2026-05-05 11:40 | 57.20686 | 7.40565 | 8483 ft | 171 kts | 153° |
| 2026-05-05 11:40 | 57.19696 | 7.41768 | 8483 ft | 170 kts | 153° |
| 2026-05-05 11:40 | 57.18710 | 7.42966 | 8482 ft | 170 kts | 153° |
| 2026-05-05 11:41 | 57.17727 | 7.44159 | 8489 ft | 169 kts | 153° |
| 2026-05-05 11:41 | 57.16746 | 7.45351 | 8487 ft | 169 kts | 153° |
| 2026-05-05 11:41 | 57.15730 | 7.46364 | 8478 ft | 164 kts | 164° |
| 2026-05-05 11:41 | 57.14682 | 7.47184 | 8492 ft | 164 kts | 165° |
| 2026-05-05 11:42 | 57.13626 | 7.47993 | 8491 ft | 164 kts | 165° |
| 2026-05-05 11:42 | 57.12583 | 7.48788 | 8490 ft | 164 kts | 165° |
| 2026-05-05 11:42 | 57.11514 | 7.49603 | 8489 ft | 164 kts | 165° |
| 2026-05-05 11:42 | 57.10472 | 7.50396 | 8487 ft | 164 kts | 165° |
| 2026-05-05 11:43 | 57.09419 | 7.51196 | 8488 ft | 163 kts | 165° |
| 2026-05-05 11:43 | 57.08369 | 7.51993 | 8489 ft | 163 kts | 165° |
| 2026-05-05 11:43 | 57.07322 | 7.52789 | 8488 ft | 162 kts | 165° |
| 2026-05-05 11:43 | 57.06279 | 7.53582 | 8489 ft | 162 kts | 165° |
| 2026-05-05 11:44 | 57.05241 | 7.54372 | 8487 ft | 161 kts | 165° |
| 2026-05-05 11:44 | 57.04557 | 7.54895 | 8489 ft | 160 kts | 165° |
| 2026-05-05 11:44 | 57.03529 | 7.55684 | 8488 ft | 160 kts | 165° |
| 2026-05-05 11:44 | 57.02507 | 7.56468 | 8485 ft | 159 kts | 165° |
| 2026-05-05 11:45 | 57.01487 | 7.57239 | 8485 ft | 157 kts | 170° |
| 2026-05-05 11:45 | 57.00106 | 7.57650 | 8496 ft | 150 kts | 184° |
| 2026-05-05 11:45 | 56.99403 | 7.57768 | 8495 ft | 150 kts | 184° |
| 2026-05-05 11:45 | 56.98363 | 7.57935 | 8495 ft | 150 kts | 184° |
| 2026-05-05 11:46 | 56.97325 | 7.58101 | 8494 ft | 150 kts | 184° |
| 2026-05-05 11:46 | 56.96302 | 7.58265 | 8492 ft | 149 kts | 184° |
| 2026-05-05 11:46 | 56.95269 | 7.58433 | 8490 ft | 149 kts | 184° |
| 2026-05-05 11:46 | 56.94237 | 7.58598 | 8491 ft | 148 kts | 184° |
| 2026-05-05 11:47 | 56.93207 | 7.58761 | 8492 ft | 149 kts | 184° |
| 2026-05-05 11:47 | 56.92177 | 7.58926 | 8492 ft | 149 kts | 184° |
| 2026-05-05 11:47 | 56.91144 | 7.59092 | 8493 ft | 149 kts | 184° |
| 2026-05-05 11:47 | 56.90107 | 7.59257 | 8494 ft | 150 kts | 184° |
| 2026-05-05 11:48 | 56.88030 | 7.59591 | 8491 ft | 150 kts | 184° |
| 2026-05-05 11:48 | 56.87000 | 7.59739 | 8490 ft | 148 kts | 184° |
| 2026-05-05 11:48 | 56.85974 | 7.59870 | 8487 ft | 148 kts | 184° |
| 2026-05-05 11:49 | 56.84948 | 7.60002 | 8486 ft | 147 kts | 184° |
| 2026-05-05 11:49 | 56.83926 | 7.60133 | 8488 ft | 147 kts | 184° |
| 2026-05-05 11:49 | 56.82910 | 7.60265 | 8486 ft | 146 kts | 184° |
| 2026-05-05 11:49 | 56.81898 | 7.60399 | 8486 ft | 146 kts | 184° |
| 2026-05-05 11:50 | 56.80885 | 7.60536 | 8487 ft | 146 kts | 184° |
| 2026-05-05 11:50 | 56.79876 | 7.60672 | 8488 ft | 146 kts | 184° |
| 2026-05-05 11:50 | 56.78865 | 7.60808 | 8487 ft | 146 kts | 184° |
| 2026-05-05 11:50 | 56.77848 | 7.60937 | 8484 ft | 147 kts | 184° |
| 2026-05-05 11:51 | 56.76841 | 7.61063 | 8487 ft | 147 kts | 184° |
| 2026-05-05 11:51 | 56.75823 | 7.61189 | 8485 ft | 147 kts | 184° |
| 2026-05-05 11:51 | 56.74806 | 7.61314 | 8486 ft | 146 kts | 184° |
| 2026-05-05 11:51 | 56.73790 | 7.61439 | 8487 ft | 146 kts | 184° |
| 2026-05-05 11:52 | 56.72768 | 7.61564 | 8487 ft | 147 kts | 184° |
| 2026-05-05 11:52 | 56.71751 | 7.61689 | 8485 ft | 147 kts | 184° |
| 2026-05-05 11:52 | 56.70733 | 7.61815 | 8488 ft | 146 kts | 184° |
| 2026-05-05 11:52 | 56.69717 | 7.61942 | 8489 ft | 146 kts | 184° |
| 2026-05-05 11:53 | 56.68700 | 7.62073 | 8488 ft | 147 kts | 184° |
| 2026-05-05 11:53 | 56.67681 | 7.62228 | 8486 ft | 147 kts | 183° |
| 2026-05-05 11:53 | 56.66680 | 7.62384 | 8485 ft | 146 kts | 183° |
| 2026-05-05 11:53 | 56.65667 | 7.62545 | 8485 ft | 146 kts | 182° |
| 2026-05-05 11:54 | 56.64659 | 7.62730 | 8485 ft | 145 kts | 182° |
| 2026-05-05 11:54 | 56.63653 | 7.62919 | 8486 ft | 145 kts | 182° |
| 2026-05-05 11:54 | 56.62650 | 7.63110 | 8495 ft | 145 kts | 182° |
| 2026-05-05 11:54 | 56.61647 | 7.63301 | 8492 ft | 145 kts | 182° |
| 2026-05-05 11:55 | 56.60646 | 7.63491 | 8476 ft | 144 kts | 181° |
| 2026-05-05 11:55 | 56.59660 | 7.63651 | 8493 ft | 142 kts | 182° |
| 2026-05-05 11:55 | 56.58678 | 7.63801 | 8491 ft | 141 kts | 182° |
| 2026-05-05 11:55 | 56.57704 | 7.63951 | 8492 ft | 140 kts | 182° |
| 2026-05-05 11:56 | 56.56741 | 7.64104 | 8492 ft | 138 kts | 182° |
| 2026-05-05 11:56 | 56.55789 | 7.64259 | 8492 ft | 136 kts | 182° |
| 2026-05-05 11:56 | 56.54852 | 7.64416 | 8493 ft | 134 kts | 182° |
| 2026-05-05 11:56 | 56.53929 | 7.64574 | 8490 ft | 132 kts | 182° |
| 2026-05-05 11:57 | 56.53016 | 7.64732 | 8490 ft | 131 kts | 182° |
| 2026-05-05 11:57 | 56.52112 | 7.64890 | 8487 ft | 130 kts | 182° |
| 2026-05-05 11:57 | 56.51224 | 7.65083 | 8446 ft | 132 kts | 179° |
| 2026-05-05 11:57 | 56.50312 | 7.65354 | 8404 ft | 131 kts | 183° |
| 2026-05-05 11:58 | 56.49407 | 7.65443 | 8362 ft | 130 kts | 186° |
| 2026-05-05 11:58 | 56.48502 | 7.65531 | 8342 ft | 130 kts | 184° |
| 2026-05-05 11:58 | 56.47603 | 7.65607 | 8318 ft | 129 kts | 186° |
| 2026-05-05 11:58 | 56.46709 | 7.65685 | 8318 ft | 128 kts | 182° |
| 2026-05-05 11:59 | 56.45820 | 7.65835 | 8301 ft | 129 kts | 181° |
| 2026-05-05 11:59 | 56.44926 | 7.66005 | 8293 ft | 128 kts | 181° |
| 2026-05-05 11:59 | 56.44041 | 7.66087 | 8297 ft | 127 kts | 185° |
| 2026-05-05 11:59 | 56.43157 | 7.66231 | 8293 ft | 128 kts | 179° |
| 2026-05-05 12:00 | 56.42271 | 7.66469 | 8303 ft | 129 kts | 179° |
| 2026-05-05 12:00 | 56.41391 | 7.66664 | 8346 ft | 128 kts | 182° |
| 2026-05-05 12:00 | 56.40503 | 7.66811 | 8412 ft | 127 kts | 181° |
| 2026-05-05 12:00 | 56.39619 | 7.66950 | 8425 ft | 130 kts | 182° |
| 2026-05-05 12:01 | 56.38717 | 7.67056 | 8464 ft | 130 kts | 185° |
| 2026-05-05 12:01 | 56.37807 | 7.67161 | 8520 ft | 131 kts | 181° |
| 2026-05-05 12:01 | 56.36908 | 7.67367 | 8595 ft | 130 kts | 180° |
| 2026-05-05 12:01 | 56.36004 | 7.67563 | 8628 ft | 133 kts | 181° |
| 2026-05-05 12:02 | 56.35057 | 7.67723 | 8599 ft | 140 kts | 182° |
| 2026-05-05 12:02 | 56.34055 | 7.67866 | 8573 ft | 146 kts | 182° |
| 2026-05-05 12:02 | 56.33028 | 7.68008 | 8550 ft | 150 kts | 182° |
| 2026-05-05 12:02 | 56.31974 | 7.68136 | 8529 ft | 153 kts | 182° |
| 2026-05-05 12:03 | 56.30911 | 7.68258 | 8507 ft | 156 kts | 182° |
| 2026-05-05 12:03 | 56.29823 | 7.68379 | 8510 ft | 157 kts | 182° |
| 2026-05-05 12:03 | 56.28728 | 7.68522 | 8510 ft | 158 kts | 181° |
| 2026-05-05 12:03 | 56.27626 | 7.68677 | 8505 ft | 159 kts | 181° |
| 2026-05-05 12:04 | 56.26513 | 7.68831 | 8507 ft | 160 kts | 181° |
| 2026-05-05 12:04 | 56.25397 | 7.68986 | 8509 ft | 162 kts | 181° |
| 2026-05-05 12:04 | 56.24270 | 7.69142 | 8504 ft | 163 kts | 181° |
| 2026-05-05 12:04 | 56.23134 | 7.69296 | 8503 ft | 164 kts | 181° |
| 2026-05-05 12:05 | 56.21993 | 7.69450 | 8508 ft | 165 kts | 181° |
| 2026-05-05 12:05 | 56.20845 | 7.69603 | 8508 ft | 166 kts | 181° |
| 2026-05-05 12:05 | 56.19690 | 7.69755 | 8507 ft | 166 kts | 181° |
| 2026-05-05 12:05 | 56.18550 | 7.69907 | 8500 ft | 167 kts | 181° |
| 2026-05-05 12:06 | 56.17393 | 7.70060 | 8503 ft | 167 kts | 181° |
| 2026-05-05 12:06 | 56.16230 | 7.70213 | 8500 ft | 168 kts | 181° |
| 2026-05-05 12:06 | 56.15064 | 7.70363 | 8502 ft | 168 kts | 181° |
| 2026-05-05 12:06 | 56.13894 | 7.70525 | 8508 ft | 169 kts | 180° |
| 2026-05-05 12:07 | 56.12722 | 7.70709 | 8512 ft | 170 kts | 180° |
| 2026-05-05 12:07 | 56.11543 | 7.70896 | 8500 ft | 170 kts | 180° |
| 2026-05-05 12:07 | 56.10358 | 7.71084 | 8512 ft | 171 kts | 180° |
| 2026-05-05 12:07 | 56.09170 | 7.71270 | 8506 ft | 172 kts | 180° |
| 2026-05-05 12:08 | 56.07978 | 7.71454 | 8511 ft | 172 kts | 180° |
| 2026-05-05 12:08 | 56.06768 | 7.71636 | 8427 ft | 177 kts | 180° |
| 2026-05-05 12:08 | 56.05527 | 7.71810 | 8306 ft | 180 kts | 180° |
| 2026-05-05 12:08 | 56.04269 | 7.71972 | 8202 ft | 182 kts | 180° |
| 2026-05-05 12:09 | 56.03003 | 7.72127 | 8098 ft | 183 kts | 180° |
| 2026-05-05 12:09 | 56.01730 | 7.72276 | 7999 ft | 183 kts | 180° |
| 2026-05-05 12:09 | 56.00453 | 7.72419 | 7896 ft | 184 kts | 180° |
| 2026-05-05 12:09 | 55.99178 | 7.72557 | 7790 ft | 184 kts | 180° |
| 2026-05-05 12:10 | 55.97902 | 7.72687 | 7686 ft | 184 kts | 180° |
| 2026-05-05 12:10 | 55.96638 | 7.72811 | 7585 ft | 184 kts | 180° |
| 2026-05-05 12:10 | 55.95358 | 7.72930 | 7502 ft | 183 kts | 180° |
| 2026-05-05 12:10 | 55.94103 | 7.73045 | 7504 ft | 178 kts | 180° |
| 2026-05-05 12:11 | 55.92877 | 7.73160 | 7509 ft | 175 kts | 180° |
| 2026-05-05 12:11 | 55.91680 | 7.73274 | 7509 ft | 173 kts | 180° |
| 2026-05-05 12:11 | 55.90477 | 7.73388 | 7509 ft | 172 kts | 180° |
| 2026-05-05 12:11 | 55.89282 | 7.73503 | 7510 ft | 172 kts | 180° |
| 2026-05-05 12:12 | 55.88091 | 7.73618 | 7508 ft | 171 kts | 180° |
| 2026-05-05 12:12 | 55.86900 | 7.73733 | 7509 ft | 171 kts | 180° |
| 2026-05-05 12:12 | 55.85713 | 7.73847 | 7509 ft | 171 kts | 180° |
| 2026-05-05 12:12 | 55.84523 | 7.73962 | 7507 ft | 171 kts | 180° |
| 2026-05-05 12:13 | 55.83334 | 7.74078 | 7505 ft | 171 kts | 180° |
| 2026-05-05 12:13 | 55.82146 | 7.74194 | 7506 ft | 171 kts | 180° |
| 2026-05-05 12:13 | 55.80959 | 7.74310 | 7506 ft | 171 kts | 180° |
| 2026-05-05 12:13 | 55.79770 | 7.74426 | 7506 ft | 171 kts | 180° |
| 2026-05-05 12:14 | 55.78583 | 7.74542 | 7507 ft | 171 kts | 180° |
| 2026-05-05 12:14 | 55.77396 | 7.74657 | 7508 ft | 171 kts | 180° |
| 2026-05-05 12:14 | 55.76208 | 7.74772 | 7508 ft | 171 kts | 180° |
| 2026-05-05 12:14 | 55.75037 | 7.74894 | 7508 ft | 171 kts | 180° |
| 2026-05-05 12:15 | 55.73850 | 7.75043 | 7506 ft | 171 kts | 179° |
| 2026-05-05 12:15 | 55.72662 | 7.75194 | 7507 ft | 171 kts | 179° |
| 2026-05-05 12:15 | 55.71474 | 7.75346 | 7506 ft | 171 kts | 179° |
| 2026-05-05 12:15 | 55.70285 | 7.75498 | 7508 ft | 171 kts | 179° |
| 2026-05-05 12:16 | 55.69098 | 7.75650 | 7508 ft | 171 kts | 179° |
| 2026-05-05 12:16 | 55.67911 | 7.75803 | 7508 ft | 171 kts | 179° |
| 2026-05-05 12:16 | 55.66725 | 7.75957 | 7507 ft | 171 kts | 179° |
| 2026-05-05 12:16 | 55.65538 | 7.76109 | 7509 ft | 171 kts | 179° |
| 2026-05-05 12:17 | 55.64364 | 7.76260 | 7506 ft | 171 kts | 179° |
| 2026-05-05 12:17 | 55.63176 | 7.76408 | 7504 ft | 171 kts | 179° |
| 2026-05-05 12:17 | 55.61988 | 7.76556 | 7505 ft | 171 kts | 179° |
| 2026-05-05 12:17 | 55.60799 | 7.76706 | 7506 ft | 171 kts | 179° |
| 2026-05-05 12:18 | 55.59610 | 7.76855 | 7506 ft | 171 kts | 179° |
| 2026-05-05 12:18 | 55.58421 | 7.77005 | 7506 ft | 171 kts | 179° |
| 2026-05-05 12:18 | 55.57232 | 7.77157 | 7505 ft | 171 kts | 179° |
| 2026-05-05 12:18 | 55.56041 | 7.77308 | 7507 ft | 171 kts | 179° |
| 2026-05-05 12:19 | 55.54849 | 7.77459 | 7507 ft | 171 kts | 179° |
| 2026-05-05 12:19 | 55.53657 | 7.77609 | 7498 ft | 172 kts | 179° |
| 2026-05-05 12:19 | 55.52465 | 7.77744 | 7499 ft | 172 kts | 179° |
| 2026-05-05 12:19 | 55.51268 | 7.77873 | 7499 ft | 172 kts | 179° |
| 2026-05-05 12:20 | 55.50071 | 7.78001 | 7499 ft | 173 kts | 179° |
| 2026-05-05 12:20 | 55.48870 | 7.78127 | 7501 ft | 173 kts | 179° |
| 2026-05-05 12:20 | 55.47685 | 7.78252 | 7501 ft | 173 kts | 179° |
| 2026-05-05 12:20 | 55.46484 | 7.78378 | 7501 ft | 173 kts | 179° |
| 2026-05-05 12:21 | 55.45282 | 7.78504 | 7501 ft | 173 kts | 179° |
| 2026-05-05 12:21 | 55.44081 | 7.78631 | 7501 ft | 173 kts | 179° |
| 2026-05-05 12:21 | 55.42883 | 7.78770 | 7500 ft | 173 kts | 180° |
| 2026-05-05 12:21 | 55.41678 | 7.78934 | 7499 ft | 174 kts | 179° |
| 2026-05-05 12:22 | 55.40468 | 7.79097 | 7499 ft | 174 kts | 179° |
| 2026-05-05 12:22 | 55.39260 | 7.79247 | 7500 ft | 174 kts | 179° |
| 2026-05-05 12:22 | 55.38050 | 7.79415 | 7500 ft | 175 kts | 179° |
| 2026-05-05 12:22 | 55.36838 | 7.79583 | 7500 ft | 174 kts | 179° |
| 2026-05-05 12:23 | 55.35628 | 7.79733 | 7500 ft | 174 kts | 179° |
| 2026-05-05 12:23 | 55.34424 | 7.79855 | 7498 ft | 173 kts | 180° |
| 2026-05-05 12:23 | 55.33221 | 7.79948 | 7499 ft | 173 kts | 181° |
| 2026-05-05 12:23 | 55.32014 | 7.80060 | 7497 ft | 174 kts | 180° |
| 2026-05-05 12:24 | 55.30809 | 7.80160 | 7496 ft | 173 kts | 180° |
| 2026-05-05 12:24 | 55.29618 | 7.80260 | 7495 ft | 173 kts | 180° |
| 2026-05-05 12:24 | 55.28414 | 7.80351 | 7495 ft | 173 kts | 180° |
| 2026-05-05 12:24 | 55.27212 | 7.80435 | 7491 ft | 173 kts | 180° |
| 2026-05-05 12:25 | 55.26010 | 7.80508 | 7490 ft | 173 kts | 180° |
| 2026-05-05 12:25 | 55.24806 | 7.80577 | 7491 ft | 173 kts | 180° |
| 2026-05-05 12:25 | 55.23601 | 7.80648 | 7491 ft | 173 kts | 180° |
| 2026-05-05 12:25 | 55.22395 | 7.80720 | 7486 ft | 173 kts | 180° |
| 2026-05-05 12:26 | 55.21164 | 7.80790 | 7357 ft | 180 kts | 180° |
| 2026-05-05 12:26 | 55.19897 | 7.80855 | 7230 ft | 183 kts | 180° |
| 2026-05-05 12:26 | 55.18611 | 7.80926 | 7103 ft | 186 kts | 180° |
| 2026-05-05 12:26 | 55.17310 | 7.81000 | 6979 ft | 187 kts | 180° |
| 2026-05-05 12:27 | 55.16018 | 7.81056 | 6856 ft | 189 kts | 180° |
| 2026-05-05 12:27 | 55.14701 | 7.81114 | 6733 ft | 190 kts | 180° |
| 2026-05-05 12:27 | 55.13382 | 7.81142 | 6609 ft | 190 kts | 180° |
| 2026-05-05 12:27 | 55.12061 | 7.81160 | 6486 ft | 189 kts | 180° |
| 2026-05-05 12:28 | 55.10746 | 7.81160 | 6359 ft | 190 kts | 180° |
| 2026-05-05 12:28 | 55.09425 | 7.81152 | 6226 ft | 189 kts | 180° |
| 2026-05-05 12:28 | 55.08108 | 7.81135 | 6096 ft | 190 kts | 180° |
| 2026-05-05 12:28 | 55.06780 | 7.81108 | 5959 ft | 191 kts | 180° |
| 2026-05-05 12:29 | 55.05446 | 7.81071 | 5830 ft | 192 kts | 180° |
| 2026-05-05 12:29 | 55.04113 | 7.81021 | 5701 ft | 191 kts | 180° |
| 2026-05-05 12:29 | 55.02784 | 7.80965 | 5569 ft | 191 kts | 180° |
| 2026-05-05 12:29 | 55.01464 | 7.80904 | 5439 ft | 189 kts | 180° |
| 2026-05-05 12:30 | 55.00155 | 7.80837 | 5313 ft | 188 kts | 179° |
| 2026-05-05 12:30 | 54.98849 | 7.80773 | 5191 ft | 187 kts | 180° |
| 2026-05-05 12:30 | 54.97577 | 7.80730 | 5194 ft | 180 kts | 179° |
| 2026-05-05 12:30 | 54.96341 | 7.80709 | 5193 ft | 176 kts | 179° |
| 2026-05-05 12:31 | 54.95128 | 7.80696 | 5193 ft | 174 kts | 178° |
| 2026-05-05 12:31 | 54.94329 | 7.80679 | 5194 ft | 174 kts | 178° |
| 2026-05-05 12:31 | 54.93121 | 7.80648 | 5192 ft | 173 kts | 179° |
| 2026-05-05 12:31 | 54.91921 | 7.80647 | 5194 ft | 173 kts | 177° |
| 2026-05-05 12:32 | 54.90720 | 7.80651 | 5193 ft | 173 kts | 177° |
| 2026-05-05 12:32 | 54.89519 | 7.80668 | 5192 ft | 172 kts | 177° |
| 2026-05-05 12:32 | 54.88327 | 7.80695 | 5193 ft | 171 kts | 177° |
| 2026-05-05 12:32 | 54.87138 | 7.80724 | 5194 ft | 171 kts | 177° |
| 2026-05-05 12:33 | 54.85947 | 7.80726 | 5193 ft | 171 kts | 178° |
| 2026-05-05 12:33 | 54.84751 | 7.80705 | 5195 ft | 173 kts | 178° |
| 2026-05-05 12:33 | 54.83551 | 7.80688 | 5196 ft | 172 kts | 178° |
| 2026-05-05 12:33 | 54.82352 | 7.80678 | 5197 ft | 172 kts | 178° |
| 2026-05-05 12:34 | 54.81170 | 7.80670 | 5196 ft | 172 kts | 178° |
| 2026-05-05 12:34 | 54.79973 | 7.80661 | 5193 ft | 172 kts | 178° |
| 2026-05-05 12:34 | 54.78778 | 7.80650 | 5195 ft | 172 kts | 178° |
| 2026-05-05 12:34 | 54.77584 | 7.80643 | 5193 ft | 171 kts | 178° |
| 2026-05-05 12:35 | 54.76392 | 7.80637 | 5196 ft | 172 kts | 178° |
| 2026-05-05 12:35 | 54.75193 | 7.80609 | 5195 ft | 173 kts | 178° |
| 2026-05-05 12:35 | 54.73990 | 7.80573 | 5192 ft | 173 kts | 179° |
| 2026-05-05 12:35 | 54.72788 | 7.80547 | 5193 ft | 173 kts | 178° |
| 2026-05-05 12:36 | 54.71582 | 7.80538 | 5193 ft | 173 kts | 178° |
| 2026-05-05 12:36 | 54.70386 | 7.80563 | 5189 ft | 172 kts | 177° |
| 2026-05-05 12:36 | 54.69188 | 7.80582 | 5190 ft | 172 kts | 177° |
| 2026-05-05 12:36 | 54.67993 | 7.80614 | 5189 ft | 171 kts | 177° |
| 2026-05-05 12:37 | 54.66804 | 7.80642 | 5189 ft | 171 kts | 177° |
| 2026-05-05 12:37 | 54.65622 | 7.80621 | 5188 ft | 173 kts | 178° |
| 2026-05-05 12:37 | 54.64419 | 7.80592 | 5189 ft | 173 kts | 178° |
| 2026-05-05 12:37 | 54.63199 | 7.80574 | 5188 ft | 173 kts | 178° |
| 2026-05-05 12:38 | 54.62013 | 7.80557 | 5187 ft | 173 kts | 178° |
| 2026-05-05 12:38 | 54.60807 | 7.80523 | 5187 ft | 174 kts | 178° |
| 2026-05-05 12:38 | 54.59595 | 7.80484 | 5185 ft | 174 kts | 178° |
| 2026-05-05 12:38 | 54.58383 | 7.80444 | 5187 ft | 175 kts | 178° |
| 2026-05-05 12:39 | 54.57169 | 7.80403 | 5184 ft | 175 kts | 178° |
| 2026-05-05 12:39 | 54.55953 | 7.80354 | 5185 ft | 175 kts | 178° |
| 2026-05-05 12:39 | 54.54740 | 7.80311 | 5184 ft | 174 kts | 178° |
| 2026-05-05 12:39 | 54.53532 | 7.80278 | 5183 ft | 172 kts | 179° |
| 2026-05-05 12:40 | 54.52334 | 7.80268 | 5188 ft | 172 kts | 178° |
| 2026-05-05 12:40 | 54.51137 | 7.80241 | 5186 ft | 172 kts | 179° |
| 2026-05-05 12:40 | 54.49947 | 7.80232 | 5183 ft | 171 kts | 179° |
| 2026-05-05 12:40 | 54.48765 | 7.80264 | 5183 ft | 170 kts | 178° |
| 2026-05-05 12:41 | 54.47598 | 7.80304 | 5183 ft | 170 kts | 178° |
| 2026-05-05 12:41 | 54.46421 | 7.80349 | 5182 ft | 169 kts | 178° |
| 2026-05-05 12:41 | 54.45219 | 7.80390 | 5058 ft | 176 kts | 178° |
| 2026-05-05 12:41 | 54.43984 | 7.80423 | 4931 ft | 179 kts | 178° |
| 2026-05-05 12:42 | 54.42733 | 7.80456 | 4805 ft | 180 kts | 178° |
| 2026-05-05 12:42 | 54.41470 | 7.80480 | 4675 ft | 182 kts | 179° |
| 2026-05-05 12:42 | 54.40205 | 7.80506 | 4542 ft | 181 kts | 178° |
| 2026-05-05 12:42 | 54.38944 | 7.80538 | 4411 ft | 181 kts | 178° |
| 2026-05-05 12:43 | 54.37684 | 7.80568 | 4284 ft | 181 kts | 178° |
| 2026-05-05 12:43 | 54.36422 | 7.80593 | 4150 ft | 181 kts | 178° |
| 2026-05-05 12:43 | 54.35159 | 7.80616 | 4018 ft | 181 kts | 178° |
| 2026-05-05 12:43 | 54.33911 | 7.80629 | 3890 ft | 182 kts | 178° |
| 2026-05-05 12:44 | 54.32631 | 7.80637 | 3761 ft | 182 kts | 178° |
| 2026-05-05 12:44 | 54.31374 | 7.80625 | 3635 ft | 183 kts | 178° |
| 2026-05-05 12:44 | 54.30099 | 7.80611 | 3502 ft | 183 kts | 178° |
| 2026-05-05 12:44 | 54.28850 | 7.80641 | 3490 ft | 176 kts | 174° |
| 2026-05-05 12:45 | 54.27645 | 7.80870 | 3489 ft | 172 kts | 167° |
| 2026-05-05 12:45 | 54.26469 | 7.81218 | 3492 ft | 171 kts | 166° |
| 2026-05-05 12:45 | 54.25301 | 7.81569 | 3494 ft | 170 kts | 166° |
| 2026-05-05 12:45 | 54.24136 | 7.81922 | 3494 ft | 169 kts | 166° |
| 2026-05-05 12:46 | 54.22983 | 7.82273 | 3487 ft | 168 kts | 166° |
| 2026-05-05 12:46 | 54.21818 | 7.82631 | 3406 ft | 171 kts | 166° |
| 2026-05-05 12:46 | 54.20634 | 7.82993 | 3331 ft | 173 kts | 166° |
| 2026-05-05 12:46 | 54.19442 | 7.83353 | 3257 ft | 174 kts | 166° |
| 2026-05-05 12:47 | 54.18249 | 7.83725 | 3177 ft | 174 kts | 165° |
| 2026-05-05 12:47 | 54.17059 | 7.84119 | 3099 ft | 174 kts | 165° |
| 2026-05-05 12:47 | 54.15868 | 7.84517 | 3020 ft | 174 kts | 165° |
| 2026-05-05 12:47 | 54.14680 | 7.84917 | 2937 ft | 174 kts | 165° |
| 2026-05-05 12:48 | 54.13494 | 7.85314 | 2859 ft | 174 kts | 166° |
| 2026-05-05 12:48 | 54.12308 | 7.85722 | 2779 ft | 174 kts | 165° |
| 2026-05-05 12:48 | 54.11123 | 7.86130 | 2701 ft | 174 kts | 165° |
| 2026-05-05 12:48 | 54.09937 | 7.86527 | 2625 ft | 174 kts | 165° |
| 2026-05-05 12:49 | 54.08748 | 7.86926 | 2552 ft | 174 kts | 166° |
| 2026-05-05 12:49 | 54.07559 | 7.87340 | 2497 ft | 173 kts | 165° |
| 2026-05-05 12:49 | 54.06401 | 7.87745 | 2497 ft | 171 kts | 165° |
| 2026-05-05 12:49 | 54.05237 | 7.88136 | 2498 ft | 169 kts | 165° |
| 2026-05-05 12:50 | 54.04085 | 7.88528 | 2496 ft | 169 kts | 165° |
| 2026-05-05 12:50 | 54.02935 | 7.88918 | 2499 ft | 168 kts | 166° |
| 2026-05-05 12:50 | 54.01778 | 7.89321 | 2426 ft | 172 kts | 165° |
| 2026-05-05 12:50 | 54.00598 | 7.89725 | 2346 ft | 174 kts | 166° |
| 2026-05-05 12:51 | 53.99408 | 7.90134 | 2265 ft | 175 kts | 165° |
| 2026-05-05 12:51 | 53.98217 | 7.90543 | 2183 ft | 175 kts | 165° |
| 2026-05-05 12:51 | 53.97021 | 7.90930 | 2113 ft | 175 kts | 165° |
| 2026-05-05 12:51 | 53.95824 | 7.91301 | 2032 ft | 174 kts | 165° |
| 2026-05-05 12:52 | 53.94636 | 7.91676 | 1994 ft | 172 kts | 166° |
| 2026-05-05 12:52 | 53.93470 | 7.92051 | 1996 ft | 169 kts | 165° |
| 2026-05-05 12:52 | 53.92316 | 7.92411 | 1993 ft | 168 kts | 165° |
| 2026-05-05 12:52 | 53.91174 | 7.92760 | 1989 ft | 166 kts | 165° |
| 2026-05-05 12:53 | 53.90056 | 7.93103 | 1993 ft | 165 kts | 166° |
| 2026-05-05 12:53 | 53.88924 | 7.93468 | 1997 ft | 166 kts | 165° |
| 2026-05-05 12:53 | 53.87787 | 7.93837 | 1993 ft | 167 kts | 165° |
| 2026-05-05 12:53 | 53.86646 | 7.94208 | 1993 ft | 166 kts | 165° |
| 2026-05-05 12:54 | 53.84374 | 7.94936 | 1990 ft | 166 kts | 165° |
| 2026-05-05 12:54 | 53.83239 | 7.95298 | 1978 ft | 166 kts | 165° |
| 2026-05-05 12:54 | 53.82103 | 7.95660 | 1988 ft | 166 kts | 165° |
| 2026-05-05 12:55 | 53.80984 | 7.96022 | 1988 ft | 166 kts | 165° |
| 2026-05-05 12:55 | 53.79835 | 7.96391 | 1984 ft | 166 kts | 165° |
| 2026-05-05 12:55 | 53.78713 | 7.96754 | 1983 ft | 167 kts | 165° |
| 2026-05-05 12:55 | 53.77569 | 7.97115 | 1980 ft | 169 kts | 166° |
| 2026-05-05 12:56 | 53.76412 | 7.97482 | 1972 ft | 169 kts | 165° |
| 2026-05-05 12:56 | 53.75264 | 7.97851 | 1996 ft | 166 kts | 165° |
| 2026-05-05 12:56 | 53.74130 | 7.98237 | 1997 ft | 166 kts | 162° |
| 2026-05-05 12:56 | 53.73013 | 7.98734 | 1997 ft | 166 kts | 160° |
| 2026-05-05 12:57 | 53.71888 | 7.99221 | 1999 ft | 168 kts | 161° |
| 2026-05-05 12:57 | 53.70754 | 7.99695 | 2001 ft | 168 kts | 161° |
| 2026-05-05 12:57 | 53.69624 | 8.00159 | 2000 ft | 170 kts | 162° |
| 2026-05-05 12:57 | 53.68470 | 8.00623 | 1996 ft | 170 kts | 163° |
| 2026-05-05 12:58 | 53.67348 | 8.01069 | 1998 ft | 161 kts | 163° |
| 2026-05-05 12:58 | 53.66284 | 8.01505 | 2003 ft | 155 kts | 160° |
| 2026-05-05 12:58 | 53.65261 | 8.02005 | 1997 ft | 151 kts | 160° |
| 2026-05-05 12:58 | 53.64267 | 8.02507 | 1993 ft | 148 kts | 160° |
| 2026-05-05 12:59 | 53.63279 | 8.03015 | 1923 ft | 149 kts | 159° |
| 2026-05-05 12:59 | 53.62274 | 8.03539 | 1786 ft | 154 kts | 159° |
| 2026-05-05 12:59 | 53.61234 | 8.04078 | 1631 ft | 159 kts | 159° |
| 2026-05-05 13:00 | 53.59103 | 8.05210 | 1313 ft | 161 kts | 160° |
| 2026-05-05 13:00 | 53.58052 | 8.05760 | 1150 ft | 155 kts | 159° |
| 2026-05-05 13:01 | 53.55044 | 8.07218 | 859 ft | 141 kts | 171° |
| 2026-05-05 13:01 | 53.54068 | 8.07156 | 815 ft | 143 kts | 180° |
| 2026-05-05 13:01 | 53.53131 | 8.07034 | 804 ft | 124 kts | 188° |
| 2026-05-05 13:01 | 53.52398 | 8.06761 | 566 ft | 100 kts | 200° |
| 2026-05-05 13:02 | 53.51768 | 8.06333 | 303 ft | 99 kts | 217° |
| 2026-05-05 13:02 | 53.51130 | 8.05852 | 189 ft | 102 kts | 192° |
| 2026-05-05 13:02 | 53.50501 | 8.05415 | 35 ft | 88 kts | 201° |
| 2026-05-05 13:02 | 53.50095 | 8.05141 | 29 ft | 45 kts | 201° |
| 2026-05-05 13:03 | 53.49980 | 8.05051 | 28 ft | 8 kts | 249° |
| 2026-05-05 13:03 | 53.50001 | 8.04946 | 27 ft | 7 kts | 330° |
| 2026-05-05 13:03 | 53.50058 | 8.04947 | 27 ft | 11 kts | 7° |
| 2026-05-05 13:03 | 53.50170 | 8.04969 | 27 ft | 20 kts | 7° |
| 2026-05-05 13:04 | 53.50287 | 8.04987 | 27 ft | 13 kts | 7° |
| 2026-05-05 13:04 | 53.50373 | 8.05008 | 27 ft | 15 kts | 9° |
| 2026-05-05 13:04 | 53.50467 | 8.05017 | 28 ft | 13 kts | 4° |
| 2026-05-05 13:04 | 53.50562 | 8.05036 | 27 ft | 17 kts | 12° |
| 2026-05-05 13:05 | 53.50643 | 8.05084 | 27 ft | 6 kts | 49° |
| 2026-05-05 13:05 | 53.50674 | 8.05167 | 27 ft | 9 kts | 27° |
| 2026-05-05 13:05 | 53.50704 | 8.05221 | 27 ft | 4 kts | 34° |
| 2026-05-05 13:05 | 53.50705 | 8.05222 | 27 ft | 1 kts | 24° |
| 2026-05-05 13:06 | 53.50709 | 8.05226 | 27 ft | 0 kts | 27° |